Time;durP1;ratioP1;P1;durP2;ratioP2;P2;SDS_P1;SDS_P2;PMS_P1;PMS_P2;Temp;Humidity;BMP_temperature;BMP_pressure;BME280_temperature;BME280_humidity;BME280_pressure;Samples;Min_cycle;Max_cycle;Signal;HPM_P1;HPM_P2
2021/01/23 00:00:58;;;;;;;9.10;4.03;;;13.70;99.90;;;;;;5033117;28;20057;-60
2021/01/23 00:03:27;;;;;;;11.85;4.95;;;13.70;99.90;;;;;;5033216;28;20137;-60
2021/01/23 00:05:55;;;;;;;7.35;3.63;;;13.70;99.90;;;;;;5033048;28;20053;-60
2021/01/23 00:08:22;;;;;;;8.38;3.97;;;13.70;99.90;;;;;;5033075;28;20038;-61
2021/01/23 00:10:49;;;;;;;13.90;4.13;;;13.70;99.90;;;;;;5032964;28;20045;-60
2021/01/23 00:13:16;;;;;;;9.95;5.32;;;13.70;99.90;;;;;;5032865;28;20566;-60
2021/01/23 00:15:43;;;;;;;9.68;4.72;;;13.70;99.90;;;;;;5033161;28;20045;-60
2021/01/23 00:18:10;;;;;;;16.33;4.30;;;13.70;99.90;;;;;;5041047;28;20183;-59
2021/01/23 00:20:38;;;;;;;10.07;4.45;;;13.70;99.90;;;;;;5051365;28;20049;-60
2021/01/23 00:23:05;;;;;;;10.77;4.60;;;13.70;99.90;;;;;;5050111;28;20041;-60
2021/01/23 00:25:32;;;;;;;12.02;5.00;;;13.70;99.90;;;;;;5052553;28;20041;-60
2021/01/23 00:27:59;;;;;;;13.25;4.43;;;13.70;99.90;;;;;;5053265;28;20041;-60
2021/01/23 00:30:27;;;;;;;16.25;4.88;;;13.70;99.90;;;;;;5056346;28;20099;-60
2021/01/23 00:32:54;;;;;;;10.82;4.57;;;13.70;99.90;;;;;;5056426;28;20099;-60
2021/01/23 00:35:21;;;;;;;16.58;5.15;;;13.70;99.90;;;;;;5056116;28;20139;-60
2021/01/23 00:37:49;;;;;;;8.27;3.97;;;13.70;99.90;;;;;;5055191;28;20051;-60
2021/01/23 00:40:16;;;;;;;14.70;4.18;;;13.70;99.90;;;;;;5056332;28;20098;-60
2021/01/23 00:42:43;;;;;;;22.10;3.90;;;13.70;99.90;;;;;;5056264;28;20103;-60
2021/01/23 00:45:11;;;;;;;12.50;3.80;;;13.70;99.90;;;;;;5056354;28;20107;-60
2021/01/23 00:47:38;;;;;;;12.50;3.80;;;13.70;99.90;;;;;;5056278;28;20045;-60
2021/01/23 00:50:06;;;;;;;12.93;3.85;;;13.70;99.90;;;;;;5056033;28;20049;-60
2021/01/23 00:52:34;;;;;;;14.32;5.15;;;13.70;99.90;;;;;;5056343;28;20084;-59
2021/01/23 00:55:01;;;;;;;10.68;4.13;;;13.70;99.90;;;;;;5055889;28;20049;-59
2021/01/23 00:57:31;;;;;;;14.18;4.32;;;13.70;99.90;;;;;;5054673;28;20399;-60
2021/01/23 00:59:58;;;;;;;7.28;4.40;;;13.70;99.90;;;;;;5054746;28;20139;-60
2021/01/23 01:02:25;;;;;;;10.40;4.28;;;13.70;99.90;;;;;;5054807;28;20056;-59
2021/01/23 01:04:52;;;;;;;11.07;3.70;;;13.70;99.90;;;;;;5054745;28;20056;-60
2021/01/23 01:07:19;;;;;;;11.77;3.95;;;13.70;99.90;;;;;;5055928;28;20049;-60
2021/01/23 01:09:46;;;;;;;18.08;4.07;;;13.60;99.90;;;;;;5055754;28;20049;-60
2021/01/23 01:12:13;;;;;;;7.80;3.75;;;13.60;99.90;;;;;;5055752;28;20060;-60
2021/01/23 01:14:40;;;;;;;15.95;4.88;;;13.60;99.90;;;;;;5055625;28;20056;-60
2021/01/23 01:17:07;;;;;;;7.53;2.85;;;13.70;99.90;;;;;;5055588;28;20045;-60
2021/01/23 01:19:35;;;;;;;14.13;3.95;;;13.60;99.90;;;;;;5055563;28;20045;-60
2021/01/23 01:22:05;;;;;;;13.48;4.47;;;13.60;99.90;;;;;;5038525;28;20136;-60
2021/01/23 01:24:32;;;;;;;8.23;3.95;;;13.60;99.90;;;;;;5055523;28;20063;-60
2021/01/23 01:26:59;;;;;;;16.02;4.30;;;13.70;99.90;;;;;;5055682;28;20064;-60
2021/01/23 01:29:26;;;;;;;11.57;4.05;;;13.60;99.90;;;;;;5055417;28;20048;-60
2021/01/23 01:31:53;;;;;;;23.10;6.00;;;13.70;99.90;;;;;;5055367;28;20052;-60
2021/01/23 01:34:20;;;;;;;11.07;4.03;;;13.70;99.90;;;;;;5054153;28;20052;-60
2021/01/23 01:36:47;;;;;;;14.45;5.95;;;13.70;99.90;;;;;;5055269;28;20045;-60
2021/01/23 01:39:14;;;;;;;12.60;3.65;;;13.70;99.90;;;;;;5054948;28;20037;-59
2021/01/23 01:41:41;;;;;;;11.98;3.50;;;13.70;99.90;;;;;;5054564;28;20053;-60
2021/01/23 01:44:08;;;;;;;9.82;3.70;;;13.70;99.90;;;;;;5055246;28;20060;-60
2021/01/23 01:46:37;;;;;;;11.80;5.15;;;13.70;99.90;;;;;;5055121;28;20041;-60
2021/01/23 01:49:06;;;;;;;14.32;4.13;;;13.70;99.90;;;;;;5055179;28;20052;-60
2021/01/23 01:51:33;;;;;;;8.52;4.25;;;13.80;99.90;;;;;;5054901;28;20577;-60
2021/01/23 01:54:01;;;;;;;16.67;4.65;;;13.70;99.90;;;;;;5054857;28;20052;-60
2021/01/23 01:56:28;;;;;;;10.20;4.70;;;13.70;99.90;;;;;;5054881;28;20037;-60
2021/01/23 01:58:56;;;;;;;9.73;4.38;;;13.70;99.90;;;;;;5054625;28;20052;-59
2021/01/23 02:01:23;;;;;;;11.13;3.80;;;13.70;99.90;;;;;;5053486;28;20132;-60
2021/01/23 02:04:11;;;;;;;14.23;5.43;;;13.70;99.90;;;;;;5055018;28;20052;-60
2021/01/23 02:07:06;;;;;;;12.45;5.40;;;13.70;99.90;;;;;;5053501;28;20053;-60
2021/01/23 02:10:10;;;;;;;9.43;4.00;;;13.60;99.90;;;;;;5054650;28;20498;-60
2021/01/23 02:12:55;;;;;;;16.67;4.82;;;13.60;99.90;;;;;;5054501;28;20045;-60
2021/01/23 02:15:26;;;;;;;10.55;3.33;;;13.60;99.90;;;;;;5054562;28;20056;-59
2021/01/23 02:18:03;;;;;;;13.20;4.80;;;13.60;99.90;;;;;;5054444;28;20140;-60
2021/01/23 02:20:49;;;;;;;;;;;13.60;99.90;;;;;;5054944;28;20049;-60
2021/01/23 02:23:22;;;;;;;9.35;5.05;;;13.60;99.90;;;;;;5053090;28;19921;-60
2021/01/23 02:26:00;;;;;;;15.35;7.00;;;13.60;99.90;;;;;;5054447;28;20049;-60
2021/01/23 02:28:45;;;;;;;19.00;5.38;;;13.50;99.90;;;;;;5054367;28;20132;-60
2021/01/23 02:31:17;;;;;;;11.15;4.38;;;13.60;99.90;;;;;;5054262;28;20052;-59
2021/01/23 02:33:50;;;;;;;9.98;4.40;;;13.60;99.90;;;;;;5054151;28;20053;-60
2021/01/23 02:36:22;;;;;;;16.67;4.70;;;13.60;99.90;;;;;;5054268;28;20056;-60
2021/01/23 02:38:51;;;;;;;13.13;4.38;;;13.60;99.90;;;;;;5054382;28;20150;-60
2021/01/23 02:41:19;;;;;;;15.55;4.45;;;13.60;99.90;;;;;;5053903;28;20041;-60
2021/01/23 02:43:47;;;;;;;11.23;4.88;;;13.60;99.90;;;;;;5052956;28;20135;-61
2021/01/23 02:46:19;;;;;;;18.83;4.97;;;13.60;99.90;;;;;;5053807;28;20040;-60
2021/01/23 02:48:48;;;;;;;11.02;4.95;;;13.70;99.90;;;;;;5053979;28;20083;-60
2021/01/23 02:51:21;;;;;;;17.90;5.90;;;13.70;99.90;;;;;;5053464;28;20045;-60
2021/01/23 02:53:55;;;;;;;12.07;5.13;;;13.70;99.90;;;;;;5053729;28;20076;-60
2021/01/23 02:56:24;;;;;;;15.75;5.05;;;13.70;99.90;;;;;;5053909;28;20060;-60
2021/01/23 02:59:00;;;;;;;10.38;4.50;;;13.70;99.90;;;;;;5053826;28;20535;-60
2021/01/23 03:01:30;;;;;;;17.90;4.70;;;13.70;99.90;;;;;;5053838;28;20041;-61
2021/01/23 03:03:58;;;;;;;7.45;3.70;;;13.60;99.90;;;;;;5053731;28;20408;-61
2021/01/23 03:06:29;;;;;;;14.05;4.82;;;13.60;99.90;;;;;;5053710;28;20045;-60
2021/01/23 03:08:56;;;;;;;13.35;5.50;;;13.70;99.90;;;;;;5053594;28;20045;-60
2021/01/23 03:11:23;;;;;;;13.32;5.10;;;13.60;99.90;;;;;;5052347;28;20045;-61
2021/01/23 03:13:50;;;;;;;13.50;4.40;;;13.60;99.90;;;;;;5053602;28;20041;-60
2021/01/23 03:16:17;;;;;;;10.65;4.60;;;13.60;99.90;;;;;;5053612;28;20058;-60
2021/01/23 03:18:44;;;;;;;21.70;6.63;;;13.60;99.90;;;;;;5053487;28;20051;-60
2021/01/23 03:21:11;;;;;;;13.77;3.78;;;13.60;99.90;;;;;;5053434;28;20048;-60
2021/01/23 03:23:38;;;;;;;14.05;4.55;;;13.60;99.90;;;;;;5052303;28;20484;-60
2021/01/23 03:26:05;;;;;;;9.60;4.20;;;13.60;99.90;;;;;;5053295;28;20110;-60
2021/01/23 03:28:32;;;;;;;14.38;5.10;;;13.60;99.90;;;;;;5052184;28;20048;-60
2021/01/23 03:31:00;;;;;;;15.23;4.63;;;13.60;99.90;;;;;;5053306;28;20049;-60
2021/01/23 03:33:27;;;;;;;11.52;4.47;;;13.60;99.90;;;;;;5053540;28;20055;-60
2021/01/23 03:35:54;;;;;;;14.18;5.10;;;13.70;99.90;;;;;;5053471;28;20148;-60
2021/01/23 03:38:21;;;;;;;11.25;6.18;;;13.70;99.90;;;;;;5053406;28;20104;-59
2021/01/23 03:40:49;;;;;;;13.20;4.50;;;13.70;99.90;;;;;;5053170;28;20060;-60
2021/01/23 03:43:16;;;;;;;13.52;5.05;;;13.70;99.90;;;;;;5053289;28;20052;-60
2021/01/23 03:45:43;;;;;;;14.30;4.22;;;13.70;99.90;;;;;;5052076;28;20110;-60
2021/01/23 03:48:10;;;;;;;10.95;4.63;;;13.70;99.90;;;;;;5053098;28;20510;-60
2021/01/23 03:50:38;;;;;;;14.50;4.50;;;13.70;99.90;;;;;;5053447;28;20048;-60
2021/01/23 03:53:05;;;;;;;11.50;4.50;;;13.70;99.90;;;;;;5053071;28;20398;-60
2021/01/23 03:55:32;;;;;;;20.63;6.05;;;13.70;99.90;;;;;;5052917;28;20083;-60
2021/01/23 03:57:59;;;;;;;12.90;4.38;;;13.70;99.90;;;;;;5053383;28;20045;-60
2021/01/23 04:00:26;;;;;;;10.30;4.68;;;13.70;99.90;;;;;;5053322;28;20073;-59
2021/01/23 04:02:53;;;;;;;9.95;3.67;;;13.70;99.90;;;;;;5053510;28;20127;-61
2021/01/23 04:05:20;;;;;;;17.02;7.18;;;13.70;99.90;;;;;;5057414;28;20040;-60
2021/01/23 04:07:47;;;;;;;8.98;4.57;;;13.70;99.90;;;;;;5056925;28;20048;-59
2021/01/23 04:10:14;;;;;;;13.18;4.97;;;13.70;99.90;;;;;;5056841;28;20051;-60
2021/01/23 04:12:41;;;;;;;11.30;4.43;;;13.70;99.90;;;;;;5056852;28;20049;-60
2021/01/23 04:15:09;;;;;;;13.82;4.60;;;13.70;99.90;;;;;;5056620;28;20404;-60
2021/01/23 04:17:36;;;;;;;13.23;4.78;;;13.60;99.90;;;;;;5056856;28;20055;-60
2021/01/23 04:20:04;;;;;;;13.38;5.57;;;13.60;99.90;;;;;;5056860;28;20056;-60
2021/01/23 04:22:32;;;;;;;14.95;6.25;;;13.60;99.90;;;;;;5056761;28;20859;-61
2021/01/23 04:24:59;;;;;;;16.60;5.18;;;13.60;99.90;;;;;;5055579;28;20124;-60
2021/01/23 04:27:26;;;;;;;15.80;5.25;;;13.60;99.90;;;;;;5056529;28;20052;-60
2021/01/23 04:29:53;;;;;;;13.38;4.70;;;13.60;99.90;;;;;;5055280;28;20132;-60
2021/01/23 04:32:21;;;;;;;10.90;4.15;;;13.60;99.90;;;;;;5056530;28;20052;-60
2021/01/23 04:34:49;;;;;;;11.25;4.60;;;13.70;99.90;;;;;;5055185;28;20056;-60
2021/01/23 04:37:16;;;;;;;13.13;4.93;;;13.70;99.90;;;;;;5055091;28;20446;-60
2021/01/23 04:39:43;;;;;;;12.38;5.03;;;13.70;99.90;;;;;;5056785;28;20502;-60
2021/01/23 04:42:10;;;;;;;13.25;3.97;;;13.70;99.90;;;;;;5055133;28;20081;-60
2021/01/23 04:44:37;;;;;;;11.93;4.28;;;13.70;99.90;;;;;;5056259;28;20056;-61
2021/01/23 04:47:05;;;;;;;21.58;6.43;;;13.70;99.90;;;;;;5056252;28;20041;-61
2021/01/23 04:49:33;;;;;;;11.20;5.93;;;13.70;99.90;;;;;;5056186;28;20510;-60
2021/01/23 04:52:05;;;;;;;10.32;4.03;;;13.70;99.90;;;;;;5056102;28;20483;-60
2021/01/23 04:54:34;;;;;;;11.60;4.63;;;13.70;99.90;;;;;;5056050;28;20040;-60
2021/01/23 04:57:01;;;;;;;10.52;3.97;;;13.70;99.90;;;;;;5056002;28;20049;-60
2021/01/23 04:59:29;;;;;;;16.77;6.32;;;13.70;99.90;;;;;;5055869;28;20061;-60
2021/01/23 05:02:15;;;;;;;32.75;6.50;;;13.70;99.90;;;;;;5055897;28;20118;-60
2021/01/23 05:04:47;;;;;;;14.07;3.92;;;13.70;99.90;;;;;;5056513;28;20060;-60
2021/01/23 05:07:34;;;;;;;16.17;4.43;;;13.80;99.90;;;;;;5056025;28;20136;-60
2021/01/23 05:10:23;;;;;;;7.22;4.60;;;13.70;99.90;;;;;;5055982;28;20052;-60
2021/01/23 05:12:55;;;;;;;11.57;3.55;;;13.70;99.90;;;;;;5055682;28;20060;-60
2021/01/23 05:15:30;;;;;;;17.50;4.03;;;13.70;99.90;;;;;;5054658;28;20491;-60
2021/01/23 05:17:58;;;;;;;12.43;4.35;;;13.70;99.90;;;;;;5055593;28;20483;-60
2021/01/23 05:20:31;;;;;;;12.77;5.03;;;13.70;99.90;;;;;;5055596;28;20073;-60
2021/01/23 05:23:06;;;;;;;14.88;4.63;;;13.80;99.90;;;;;;5055512;28;20056;-60
2021/01/23 05:25:35;;;;;;;13.05;3.97;;;13.80;99.90;;;;;;5055739;28;20053;-60
2021/01/23 05:28:03;;;;;;;10.48;4.60;;;13.80;99.90;;;;;;5055509;28;20045;-61
2021/01/23 05:30:40;;;;;;;10.82;4.28;;;13.80;99.90;;;;;;5055423;28;20514;-60
2021/01/23 05:33:13;;;;;;;9.23;4.00;;;13.80;99.90;;;;;;5055555;28;20132;-61
2021/01/23 05:35:54;;;;;;;10.52;3.83;;;13.90;99.90;;;;;;5055357;28;20041;-60
2021/01/23 05:38:31;;;;;;;15.35;5.55;;;13.80;99.90;;;;;;5054088;28;20053;-60
2021/01/23 05:41:09;;;;;;;9.18;3.92;;;13.90;99.90;;;;;;5053956;28;20045;-59
2021/01/23 05:43:39;;;;;;;22.92;6.03;;;13.90;99.90;;;;;;5055207;28;20453;-60
2021/01/23 05:46:10;;;;;;;11.52;3.95;;;13.90;99.90;;;;;;5055224;28;20083;-60
2021/01/23 05:49:03;;;;;;;13.85;4.55;;;13.90;99.90;;;;;;5055200;28;20483;-60
2021/01/23 05:51:30;;;;;;;12.57;5.22;;;13.90;99.90;;;;;;5051909;28;20062;-60
2021/01/23 05:53:57;;;;;;;24.15;4.30;;;13.90;99.90;;;;;;5053845;28;20041;-60
2021/01/23 05:56:25;;;;;;;15.68;3.95;;;13.90;99.90;;;;;;5054918;28;20063;-60
2021/01/23 05:58:52;;;;;;;12.75;5.32;;;13.90;99.90;;;;;;5054645;28;20064;-59
2021/01/23 06:01:22;;;;;;;11.50;3.58;;;13.90;99.90;;;;;;5054746;28;20044;-60
2021/01/23 06:03:53;;;;;;;13.02;4.53;;;13.90;99.90;;;;;;5054885;28;20407;-61
2021/01/23 06:06:20;;;;;;;23.02;5.70;;;13.90;99.90;;;;;;5054608;28;20049;-60
2021/01/23 06:08:49;;;;;;;13.57;5.03;;;13.90;99.90;;;;;;5054831;28;20102;-60
2021/01/23 06:11:20;;;;;;;18.45;5.55;;;13.90;99.90;;;;;;5053622;28;20440;-60
2021/01/23 06:13:52;;;;;;;20.73;6.00;;;13.90;99.90;;;;;;5054549;28;20037;-60
2021/01/23 06:16:34;;;;;;;12.13;3.75;;;13.90;99.90;;;;;;5054647;28;20041;-59
2021/01/23 06:19:04;;;;;;;8.77;3.63;;;13.90;99.90;;;;;;5054586;28;20049;-60
2021/01/23 06:21:44;;;;;;;13.70;5.15;;;13.90;99.90;;;;;;5053126;28;20056;-60
2021/01/23 06:24:12;;;;;;;14.52;4.00;;;13.90;99.90;;;;;;5054268;28;20041;-60
2021/01/23 06:26:55;;;;;;;12.20;5.28;;;13.90;99.90;;;;;;5054121;28;20055;-60
2021/01/23 06:29:54;;;;;;;8.95;4.38;;;13.90;99.90;;;;;;5054278;28;20404;-60
2021/01/23 06:32:21;;;;;;;15.35;5.35;;;13.90;99.90;;;;;;5039013;28;20045;-60
2021/01/23 06:34:49;;;;;;;20.83;5.55;;;13.90;99.90;;;;;;5054193;28;20572;-60
2021/01/23 06:37:30;;;;;;;12.40;4.13;;;13.90;99.90;;;;;;5054198;28;20368;-60
2021/01/23 06:40:16;;;;;;;12.13;4.78;;;13.90;99.90;;;;;;5054174;28;20122;-60
2021/01/23 06:42:48;;;;;;;9.52;4.45;;;14.00;99.90;;;;;;5054126;28;20044;-60
2021/01/23 06:45:20;;;;;;;13.13;4.10;;;14.00;99.90;;;;;;5054209;28;20110;-60
2021/01/23 06:47:58;;;;;;;16.92;5.72;;;14.10;99.90;;;;;;5053982;28;20072;-60
2021/01/23 06:50:27;;;;;;;11.65;4.22;;;14.00;99.90;;;;;;5053964;28;20430;-60
2021/01/23 06:53:01;;;;;;;12.38;3.22;;;14.10;99.90;;;;;;5053033;28;20446;-60
2021/01/23 06:55:42;;;;;;;12.00;5.43;;;14.10;99.90;;;;;;5053807;28;20052;-60
2021/01/23 06:58:19;;;;;;;12.60;5.07;;;14.00;99.90;;;;;;5053887;28;20083;-60
2021/01/23 07:00:54;;;;;;;17.35;6.65;;;14.00;99.90;;;;;;5053779;28;20132;-60
2021/01/23 07:03:22;;;;;;;17.40;5.75;;;14.00;99.90;;;;;;5052663;28;20127;-60
2021/01/23 07:05:55;;;;;;;15.77;5.57;;;14.00;99.90;;;;;;5053694;28;20057;-60
2021/01/23 07:08:26;;;;;;;12.32;6.15;;;14.00;99.90;;;;;;5052682;28;20059;-60
2021/01/23 07:11:17;;;;;;;19.50;6.72;;;14.10;99.90;;;;;;5053627;28;20048;-59
2021/01/23 07:13:57;;;;;;;14.23;4.93;;;14.00;99.90;;;;;;5052531;28;20090;-60
2021/01/23 07:16:26;;;;;;;7.32;4.32;;;14.00;99.90;;;;;;5053639;28;20563;-59
2021/01/23 07:19:02;;;;;;;16.35;4.25;;;14.10;99.90;;;;;;5052629;28;20063;-60
2021/01/23 07:21:39;;;;;;;12.25;4.63;;;14.00;99.90;;;;;;5052257;28;20136;-58
2021/01/23 07:24:09;;;;;;;18.05;3.88;;;14.10;99.90;;;;;;5053603;28;20131;-59
2021/01/23 07:26:37;;;;;;;11.35;4.78;;;14.10;99.90;;;;;;5053514;28;20044;-59
2021/01/23 07:29:09;;;;;;;23.20;6.47;;;14.10;99.90;;;;;;5052216;28;20048;-58
2021/01/23 07:31:36;;;;;;;20.50;5.75;;;14.10;99.90;;;;;;5053337;28;20106;-59
2021/01/23 07:34:11;;;;;;;19.73;6.75;;;14.10;99.90;;;;;;5053112;28;20051;-58
2021/01/23 07:36:50;;;;;;;13.43;5.10;;;14.10;99.90;;;;;;5053857;28;20087;-60
2021/01/23 07:39:20;;;;;;;26.20;5.65;;;14.10;99.90;;;;;;5056278;28;20048;-60
2021/01/23 07:41:49;;;;;;;18.10;5.40;;;14.20;99.90;;;;;;5057341;28;20133;-59
2021/01/23 07:44:18;;;;;;;18.95;6.95;;;14.20;99.90;;;;;;5057302;28;20056;-59
2021/01/23 07:46:47;;;;;;;17.30;5.95;;;14.20;99.90;;;;;;5057329;28;20083;-60
2021/01/23 07:49:28;;;;;;;14.68;5.55;;;14.20;99.90;;;;;;5056175;28;20135;-56
2021/01/23 07:52:06;;;;;;;9.23;4.53;;;14.20;99.90;;;;;;5057275;28;20077;-56
2021/01/23 07:54:47;;;;;;;10.48;4.47;;;14.20;99.90;;;;;;5057152;28;20053;-55
2021/01/23 07:57:15;;;;;;;19.23;5.97;;;14.30;99.90;;;;;;5057103;28;20053;-57
2021/01/23 07:59:46;;;;;;;10.20;4.70;;;14.30;99.90;;;;;;5057203;28;20053;-56
2021/01/23 08:02:18;;;;;;;16.48;5.30;;;14.30;99.90;;;;;;5055852;28;20048;-54
2021/01/23 08:04:55;;;;;;;11.13;4.53;;;14.30;99.90;;;;;;5055972;28;20511;-57
2021/01/23 08:07:24;;;;;;;12.30;4.63;;;14.30;99.90;;;;;;5057085;28;20103;-55
2021/01/23 08:10:11;;;;;;;11.35;5.47;;;14.30;99.90;;;;;;5056862;28;20052;-56
2021/01/23 08:12:58;;;;;;;14.43;6.22;;;14.30;99.90;;;;;;5056938;28;20044;-57
2021/01/23 08:15:27;;;;;;;17.00;4.72;;;14.30;99.90;;;;;;5055457;28;20483;-56
2021/01/23 08:17:56;;;;;;;9.80;5.35;;;14.30;99.90;;;;;;5039020;28;20071;-56
2021/01/23 08:20:37;;;;;;;16.85;6.45;;;14.30;99.90;;;;;;5056681;28;20057;-54
2021/01/23 08:23:09;;;;;;;22.00;5.07;;;14.20;99.90;;;;;;5056908;28;20083;-54
2021/01/23 08:25:54;;;;;;;9.80;3.28;;;14.20;99.90;;;;;;5056706;28;20399;-56
2021/01/23 08:28:35;;;;;;;13.20;4.13;;;14.10;99.90;;;;;;5056805;28;20131;-54
2021/01/23 08:31:23;;;;;;;12.43;4.90;;;14.00;99.90;;;;;;5056714;28;20053;-56
2021/01/23 08:33:54;;;;;;;13.07;4.07;;;14.00;99.90;;;;;;5056545;28;20045;-54
2021/01/23 08:36:28;;;;;;;8.77;5.03;;;13.90;99.90;;;;;;5056423;28;20077;-55
2021/01/23 08:39:04;;;;;;;10.02;4.18;;;13.90;99.90;;;;;;5056632;28;20415;-57
2021/01/23 08:41:32;;;;;;;19.90;5.72;;;13.90;99.90;;;;;;5038565;28;20091;-55
2021/01/23 08:43:59;;;;;;;14.68;5.07;;;13.90;99.90;;;;;;5056470;28;20098;-55
2021/01/23 08:46:26;;;;;;;10.88;5.47;;;13.90;99.90;;;;;;5055160;28;20049;-57
2021/01/23 08:48:56;;;;;;;15.75;5.10;;;13.80;99.90;;;;;;5054992;28;20482;-56
2021/01/23 08:51:24;;;;;;;13.25;5.43;;;13.80;99.90;;;;;;5054976;28;20470;-56
2021/01/23 08:53:51;;;;;;;16.23;4.90;;;13.80;99.90;;;;;;5056027;28;20519;-53
2021/01/23 08:56:18;;;;;;;14.73;4.90;;;13.90;99.90;;;;;;5056033;28;20052;-55
2021/01/23 08:58:50;;;;;;;9.63;3.95;;;14.10;99.90;;;;;;5055099;28;20049;-56
2021/01/23 09:01:17;;;;;;;5.63;3.75;;;14.40;99.90;;;;;;5055900;28;20128;-55
2021/01/23 09:03:45;;;;;;;11.80;4.22;;;14.80;99.90;;;;;;5055912;28;20114;-58
2021/01/23 09:06:12;;;;;;;13.57;5.65;;;15.30;99.90;;;;;;5054525;28;20295;-57
2021/01/23 09:08:39;;;;;;;12.73;5.28;;;15.60;99.90;;;;;;5055573;28;20055;-57
2021/01/23 09:11:06;;;;;;;13.60;5.30;;;15.80;99.90;;;;;;5055460;28;20062;-58
2021/01/23 09:13:36;;;;;;;11.40;5.50;;;15.90;99.90;;;;;;5054249;28;20140;-58
2021/01/23 09:16:05;;;;;;;14.25;4.60;;;15.90;99.90;;;;;;5055325;28;20041;-58
2021/01/23 09:18:32;;;;;;;12.75;4.18;;;16.00;99.90;;;;;;5055562;28;20079;-58
2021/01/23 09:20:59;;;;;;;14.88;5.63;;;16.10;99.90;;;;;;5055266;28;20080;-58
2021/01/23 09:23:28;;;;;;;14.60;5.75;;;16.20;99.90;;;;;;5054256;28;20051;-58
2021/01/23 09:25:55;;;;;;;15.98;4.53;;;16.30;99.90;;;;;;5055359;28;20494;-59
2021/01/23 09:28:25;;;;;;;17.48;5.72;;;16.10;99.90;;;;;;5021262;28;20143;-57
2021/01/23 09:30:52;;;;;;;13.48;5.13;;;15.90;99.90;;;;;;5055242;28;20122;-57
2021/01/23 09:33:19;;;;;;;14.85;4.20;;;15.90;99.90;;;;;;5055233;28;20052;-58
2021/01/23 09:35:47;;;;;;;16.08;6.03;;;16.00;99.90;;;;;;5054992;28;20495;-58
2021/01/23 09:38:16;;;;;;;13.35;4.25;;;16.30;99.90;;;;;;5055117;28;20041;-58
2021/01/23 09:40:44;;;;;;;11.57;5.13;;;16.40;99.90;;;;;;5053771;28;20053;-59
2021/01/23 09:43:11;;;;;;;11.77;4.43;;;16.50;99.90;;;;;;5054888;28;20119;-59
2021/01/23 09:45:38;;;;;;;10.10;4.80;;;16.50;99.90;;;;;;5054909;28;20064;-59
2021/01/23 09:48:06;;;;;;;12.63;5.22;;;16.40;99.90;;;;;;5055167;28;20131;-59
2021/01/23 09:50:39;;;;;;;13.30;5.68;;;16.50;99.90;;;;;;5054891;28;20048;-59
2021/01/23 09:53:07;;;;;;;12.68;4.45;;;16.70;99.90;;;;;;5054871;28;20387;-59
2021/01/23 09:55:34;;;;;;;12.55;5.13;;;16.90;99.90;;;;;;5036954;28;20049;-59
2021/01/23 09:58:02;;;;;;;14.05;4.75;;;16.80;99.90;;;;;;5054453;28;20069;-59
2021/01/23 10:00:29;;;;;;;11.27;5.60;;;16.70;99.90;;;;;;5053177;28;20083;-59
2021/01/23 10:02:57;;;;;;;10.38;6.00;;;16.40;99.90;;;;;;5054330;28;20045;-59
2021/01/23 10:05:24;;;;;;;14.95;5.60;;;16.20;99.90;;;;;;5053406;28;20382;-59
2021/01/23 10:07:51;;;;;;;12.55;3.92;;;16.00;99.90;;;;;;5054581;28;20052;-59
2021/01/23 10:10:19;;;;;;;10.73;3.42;;;15.80;99.90;;;;;;5054396;28;20045;-59
2021/01/23 10:12:46;;;;;;;9.95;3.97;;;15.60;99.90;;;;;;5053218;28;20506;-59
2021/01/23 10:15:14;;;;;;;10.27;3.70;;;15.50;99.90;;;;;;5020361;28;20044;-57
2021/01/23 10:17:44;;;;;;;13.50;4.70;;;15.40;99.90;;;;;;5054321;28;20087;-58
2021/01/23 10:20:11;;;;;;;13.35;3.60;;;15.30;99.90;;;;;;5053153;28;20049;-58
2021/01/23 10:22:38;;;;;;;13.15;4.13;;;15.30;99.90;;;;;;5054202;28;20045;-58
2021/01/23 10:25:07;;;;;;;15.82;5.07;;;15.30;99.90;;;;;;5054073;28;20057;-58
2021/01/23 10:27:36;;;;;;;15.55;4.72;;;15.20;99.90;;;;;;5052738;28;20087;-58
2021/01/23 10:30:06;;;;;;;15.45;5.15;;;15.20;99.90;;;;;;5054069;28;20124;-58
2021/01/23 10:32:34;;;;;;;9.93;5.57;;;15.10;99.90;;;;;;5052878;28;20045;-58
2021/01/23 10:35:01;;;;;;;11.20;5.38;;;15.10;99.90;;;;;;5053952;28;20414;-58
2021/01/23 10:37:46;;;;;;;13.50;5.82;;;15.00;99.90;;;;;;5048551;28;20061;-58
2021/01/23 10:41:11;;;;;;;14.82;7.85;;;15.00;99.90;;;;;;5038341;28;20132;-59
2021/01/23 10:43:45;;;;;;;28.85;14.65;;;15.00;99.90;;;;;;5044681;28;20426;-58
2021/01/23 10:46:18;;;;;;;23.13;11.05;;;15.00;99.90;;;;;;5033223;28;20103;-57
2021/01/23 10:48:45;;;;;;;21.70;8.55;;;15.10;99.90;;;;;;5044424;28;20049;-57
2021/01/23 10:51:15;;;;;;;10.65;6.47;;;15.20;99.90;;;;;;5049384;28;20124;-58
2021/01/23 10:53:46;;;;;;;12.50;5.00;;;15.20;99.90;;;;;;5042189;28;20049;-58
2021/01/23 10:56:15;;;;;;;6.88;3.53;;;15.20;99.90;;;;;;5035774;28;20085;-57
2021/01/23 10:58:42;;;;;;;10.63;3.70;;;15.20;99.90;;;;;;5032964;28;20488;-57
2021/01/23 11:01:14;;;;;;;10.05;3.45;;;15.20;99.90;;;;;;5033712;28;20045;-57
2021/01/23 11:03:41;;;;;;;9.88;4.03;;;15.10;99.90;;;;;;5040629;28;20579;-55
2021/01/23 11:06:08;;;;;;;6.82;4.15;;;15.10;99.90;;;;;;5016728;28;20137;-58
2021/01/23 11:08:39;;;;;;;16.70;5.03;;;15.10;99.90;;;;;;5044220;28;20049;-58
2021/01/23 11:11:06;;;;;;;7.65;4.30;;;15.10;99.90;;;;;;5050010;28;20395;-57
2021/01/23 11:13:36;;;;;;;10.00;4.15;;;15.10;99.90;;;;;;5041194;28;20050;-58
2021/01/23 11:16:03;;;;;;;14.20;5.65;;;15.10;99.90;;;;;;5035254;28;20049;-58
2021/01/23 11:18:32;;;;;;;11.60;4.95;;;15.10;99.90;;;;;;5042304;28;20057;-58
2021/01/23 11:21:00;;;;;;;15.82;4.60;;;15.10;99.90;;;;;;5035002;28;20047;-58
2021/01/23 11:23:28;;;;;;;15.45;5.18;;;15.10;99.90;;;;;;5041735;28;20041;-58
2021/01/23 11:25:55;;;;;;;8.38;4.50;;;15.10;99.90;;;;;;5034751;28;20047;-58
2021/01/23 11:28:22;;;;;;;9.52;3.80;;;15.10;99.90;;;;;;5041908;28;20415;-58
2021/01/23 11:30:53;;;;;;;9.77;4.43;;;15.10;99.90;;;;;;5033806;28;20042;-57
2021/01/23 11:33:21;;;;;;;12.05;5.22;;;15.10;99.90;;;;;;5042371;28;20527;-58
2021/01/23 11:35:49;;;;;;;15.63;4.70;;;15.10;99.90;;;;;;5033200;28;20060;-58
2021/01/23 11:38:16;;;;;;;11.40;5.55;;;15.10;99.90;;;;;;5042562;28;20423;-58
2021/01/23 11:40:45;;;;;;;13.85;5.25;;;15.00;99.90;;;;;;5032543;28;20045;-58
2021/01/23 11:43:13;;;;;;;17.40;5.55;;;15.00;99.90;;;;;;5044794;28;20049;-57
2021/01/23 11:45:40;;;;;;;15.18;6.10;;;15.00;99.90;;;;;;5031562;28;20059;-58
2021/01/23 11:48:09;;;;;;;12.90;4.38;;;15.10;99.90;;;;;;5043690;28;20501;-59
2021/01/23 11:50:38;;;;;;;12.90;5.35;;;15.10;99.90;;;;;;5051661;28;20077;-57
2021/01/23 11:53:06;;;;;;;11.07;5.35;;;15.00;99.90;;;;;;5041913;28;20045;-58
2021/01/23 11:55:33;;;;;;;10.30;4.60;;;15.00;99.90;;;;;;5031120;28;20080;-58
2021/01/23 11:58:00;;;;;;;8.23;4.22;;;14.90;99.90;;;;;;5043022;28;20240;-56
2021/01/23 12:00:28;;;;;;;6.90;4.40;;;14.90;99.90;;;;;;5031466;28;20041;-56
2021/01/23 12:02:57;;;;;;;10.45;5.22;;;14.90;99.90;;;;;;5031779;28;20120;-58
2021/01/23 12:05:31;;;;;;;8.43;4.25;;;14.90;99.90;;;;;;5031671;28;20073;-58
2021/01/23 12:08:00;;;;;;;7.90;4.20;;;14.80;99.90;;;;;;5040944;28;20052;-58
2021/01/23 12:10:33;;;;;;;15.35;6.10;;;14.80;99.90;;;;;;5051845;28;20057;-57
2021/01/23 12:13:00;;;;;;;12.82;3.47;;;14.80;99.90;;;;;;5043299;28;20096;-58
2021/01/23 12:15:27;;;;;;;6.80;4.88;;;14.70;99.90;;;;;;5032475;28;20046;-59
2021/01/23 12:17:54;;;;;;;10.23;3.72;;;14.70;99.90;;;;;;5041129;28;20491;-59
2021/01/23 12:20:22;;;;;;;16.15;7.07;;;14.60;99.90;;;;;;5051072;28;20041;-58
2021/01/23 12:22:51;;;;;;;12.38;4.55;;;14.50;99.90;;;;;;5043101;28;20141;-58
2021/01/23 12:25:19;;;;;;;8.73;4.57;;;14.40;99.90;;;;;;5034036;28;20492;-58
2021/01/23 12:27:48;;;;;;;8.57;3.50;;;14.40;99.90;;;;;;5046185;28;20407;-58
2021/01/23 12:30:18;;;;;;;6.57;3.45;;;14.40;99.90;;;;;;5036647;28;20136;-58
2021/01/23 12:32:45;;;;;;;8.15;2.50;;;14.20;99.90;;;;;;5047061;28;20487;-58
2021/01/23 12:35:13;;;;;;;4.45;2.25;;;14.10;99.90;;;;;;5036295;28;20144;-58
2021/01/23 12:37:41;;;;;;;3.58;2.38;;;14.00;99.90;;;;;;5047394;28;20053;-59
2021/01/23 12:40:09;;;;;;;7.03;3.15;;;13.90;99.90;;;;;;5036398;28;20132;-58
2021/01/23 12:42:37;;;;;;;5.75;2.20;;;13.80;99.90;;;;;;5047233;28;20132;-58
2021/01/23 12:45:10;;;;;;;5.45;2.42;;;13.80;99.90;;;;;;5036551;28;20072;-59
2021/01/23 12:47:37;;;;;;;6.72;2.10;;;13.90;99.90;;;;;;5047019;28;20128;-58
2021/01/23 12:50:05;;;;;;;8.18;2.80;;;13.90;99.90;;;;;;5035947;28;20042;-59
2021/01/23 12:52:32;;;;;;;7.15;2.72;;;13.80;99.90;;;;;;5045196;28;20571;-59
2021/01/23 12:55:00;;;;;;;6.82;2.92;;;13.80;99.90;;;;;;5035912;28;20073;-59